| time (UTC) | temp F | wind direction | speed MPH | gust MPH | rain 1hr in | rain 24hr in | rain mn in | humidity % | barometer mb |
| 20260509001545 | 75 | 150 | 2.0 | 10.0 | 0.00 | 0.00 | 0.00 | 74 | 1013.6 |
| 20260509000005 | 76 | 123 | 3.0 | 8.0 | 0.00 | 0.00 | 0.00 | 73 | 1012.8 |
| 20260508234539 | 76 | 121 | 3.0 | 6.0 | 0.00 | 0.00 | 0.00 | 72 | 1012.6 |
| 20260508233004 | 77 | 131 | 4.0 | 9.0 | 0.00 | 0.00 | 0.00 | 71 | 1012.6 |
| 20260508231538 | 78 | 111 | 3.0 | 8.0 | 0.00 | 0.00 | 0.00 | 69 | 1012.2 |
| 20260508230111 | 79 | 49 | 3.0 | 10.0 | 0.00 | 0.00 | 0.00 | 68 | 1012.0 |
| 20260508224540 | 79 | 121 | 2.0 | 9.0 | 0.00 | 0.00 | 0.00 | 67 | 1012.2 |
| 20260508223006 | 80 | 121 | 3.0 | 9.0 | 0.00 | 0.00 | 0.00 | 66 | 1011.9 |
| 20260508221543 | 81 | 119 | 3.0 | 7.0 | 0.00 | 0.00 | 0.00 | 65 | 1011.8 |
| 20260508220016 | 81 | 130 | 2.0 | 8.0 | 0.00 | 0.00 | 0.00 | 64 | 1011.7 |
| 20260508214550 | 82 | 50 | 1.0 | 4.0 | 0.00 | 0.00 | 0.00 | 63 | 1011.7 |
| 20260508213016 | 83 | 45 | 2.0 | 5.0 | 0.00 | 0.00 | 0.00 | 61 | 1011.4 |
| 20260508211556 | 84 | 52 | 1.0 | 4.0 | 0.00 | 0.00 | 0.00 | 62 | 1011.6 |
| 20260508210021 | 85 | 38 | 2.0 | 6.0 | 0.00 | 0.00 | 0.00 | 61 | 1011.7 |
| 20260508204559 | 84 | 41 | 2.0 | 6.0 | 0.00 | 0.00 | 0.00 | 61 | 1011.7 |
| 20260508203039 | 85 | 98 | 0.0 | 5.0 | 0.00 | 0.00 | 0.00 | 60 | 1011.8 |
| 20260508201605 | 83 | 121 | 2.0 | 7.0 | 0.00 | 0.00 | 0.00 | 61 | 1011.8 |
| 20260508200036 | 83 | 104 | 1.0 | 3.0 | 0.00 | 0.00 | 0.00 | 63 | 1012.2 |
| 20260508194606 | 83 | 124 | 2.0 | 7.0 | 0.00 | 0.00 | 0.00 | 63 | 1012.5 |
| 20260508193035 | 81 | 40 | 1.0 | 6.0 | 0.00 | 0.00 | 0.00 | 66 | 1012.9 |
| 20260508191502 | 81 | 101 | 2.0 | 9.0 | 0.00 | 0.00 | 0.00 | 64 | 1013.2 |
| 20260508190044 | 80 | 112 | 1.0 | 7.0 | 0.00 | 0.00 | 0.00 | 67 | 1013.3 |
| 20260508184519 | 79 | 129 | 2.0 | 7.0 | 0.00 | 0.00 | 0.00 | 69 | 1013.6 |
| 20260508183114 | 78 | 93 | 1.0 | 8.0 | 0.00 | 0.00 | 0.00 | 70 | 1013.9 |
| 20260508181527 | 78 | 119 | 2.0 | 7.0 | 0.00 | 0.00 | 0.00 | 72 | 1014.0 |
| 20260508180109 | 78 | 132 | 2.0 | 6.0 | 0.00 | 0.00 | 0.00 | 73 | 1014.2 |
| 20260508174547 | 78 | 123 | 3.0 | 7.0 | 0.00 | 0.00 | 0.00 | 72 | 1014.0 |
| 20260508173005 | 78 | 133 | 0.0 | 5.0 | 0.00 | 0.00 | 0.00 | 73 | 1014.1 |
| 20260508171541 | 79 | 93 | 1.0 | 4.0 | 0.00 | 0.00 | 0.00 | 70 | 1014.2 |
| 20260508170007 | 79 | 150 | 3.0 | 10.0 | 0.00 | 0.00 | 0.00 | 68 | 1014.2 |
| 20260508164545 | 79 | 148 | 2.0 | 9.0 | 0.00 | 0.00 | 0.00 | 69 | 1014.4 |
| 20260508163011 | 77 | 66 | 1.0 | 4.0 | 0.00 | 0.00 | 0.00 | 72 | 1014.8 |
| 20260508161549 | 77 | 131 | 2.0 | 9.0 | 0.00 | 0.00 | 0.00 | 71 | 1014.9 |
| 20260508160019 | 75 | 34 | 1.0 | 4.0 | 0.00 | 0.00 | 0.00 | 73 | 1015.0 |
| 20260508154555 | 74 | 87 | 0.0 | 3.0 | 0.00 | 0.00 | 0.00 | 74 | 1015.5 |
| 20260508153012 | 74 | 92 | 0.0 | 4.0 | 0.00 | 0.00 | 0.00 | 75 | 1015.4 |
| 20260508151557 | 75 | 132 | 2.0 | 7.0 | 0.00 | 0.00 | 0.00 | 74 | 1015.2 |
| 20260508150023 | 73 | 63 | 1.0 | 3.0 | 0.00 | 0.00 | 0.00 | 76 | 1015.5 |
| 20260508144552 | 73 | 115 | 0.0 | 2.0 | 0.00 | 0.00 | 0.00 | 78 | 1015.3 |
| 20260508143013 | 72 | 13 | 1.0 | 4.0 | 0.00 | 0.00 | 0.00 | 79 | 1015.5 |
| 20260508141547 | 72 | 27 | 2.0 | 4.0 | 0.00 | 0.00 | 0.00 | 79 | 1015.4 |
| 20260508140021 | 73 | 35 | 1.0 | 5.0 | 0.00 | 0.00 | 0.00 | 80 | 1015.3 |
| 20260508134557 | 73 | 30 | 1.0 | 5.0 | 0.00 | 0.00 | 0.00 | 81 | 1015.1 |
| 20260508133022 | 72 | 42 | 0.0 | 4.0 | 0.00 | 0.00 | 0.00 | 84 | 1015.2 |
| 20260508131600 | 72 | 37 | 2.0 | 4.0 | 0.00 | 0.00 | 0.00 | 86 | 1015.3 |
| 20260508130046 | 73 | 42 | 2.0 | 6.0 | 0.00 | 0.00 | 0.00 | 87 | 1015.0 |
| 20260508124500 | 73 | 81 | 1.0 | 2.0 | 0.00 | 0.00 | 0.00 | 88 | 1014.8 |
| 20260508123050 | 73 | 89 | 0.0 | 3.0 | 0.00 | 0.00 | 0.00 | 89 | 1014.8 |
| 20260508121635 | 73 | 34 | 1.0 | 4.0 | 0.00 | 0.00 | 0.00 | 89 | 1014.7 |
| 20260508120041 | 73 | 19 | 1.0 | 4.0 | 0.00 | 0.00 | 0.00 | 89 | 1014.2 |
| 20260508114510 | 73 | 41 | 1.0 | 3.0 | 0.00 | 0.00 | 0.00 | 89 | 1014.2 |
| 20260508113049 | 73 | 40 | 1.0 | 3.0 | 0.00 | 0.00 | 0.00 | 89 | 1014.0 |
| 20260508111507 | 74 | 45 | 1.0 | 4.0 | 0.00 | 0.00 | 0.00 | 88 | 1013.8 |
| 20260508110043 | 74 | 5 | 2.0 | 4.0 | 0.00 | 0.00 | 0.00 | 89 | 1013.4 |
| 20260508104506 | 74 | 56 | 2.0 | 4.0 | 0.00 | 0.00 | 0.00 | 89 | 1013.0 |
| 20260508103045 | 74 | 42 | 1.0 | 3.0 | 0.00 | 0.00 | 0.00 | 89 | 1012.8 |
| 20260508101515 | 74 | 36 | 0.0 | 2.0 | 0.00 | 0.00 | 0.00 | 89 | 1012.4 |
| 20260508100055 | 75 | 33 | 0.0 | 3.0 | 0.00 | 0.00 | 0.00 | 90 | 1012.4 |
| 20260508094537 | 75 | 22 | 0.0 | 2.0 | 0.00 | 0.00 | 0.00 | 91 | 1012.1 |
| 20260508093059 | 75 | 298 | 0.0 | 2.0 | 0.00 | 0.00 | 0.00 | 91 | 1012.3 |
| 20260508091539 | 74 | 298 | 0.0 | 2.0 | 0.00 | 0.00 | 0.00 | 91 | 1012.1 |
| 20260508090121 | 74 | 298 | 1.0 | 2.0 | 0.00 | 0.00 | 0.00 | 91 | 1012.0 |
| 20260508084530 | 74 | 298 | 0.0 | 2.0 | 0.00 | 0.00 | 0.00 | 91 | 1012.1 |
| 20260508083113 | 75 | 298 | 0.0 | 2.0 | 0.00 | 0.00 | 0.00 | 90 | 1011.8 |
| 20260508081555 | 74 | 285 | 1.0 | 2.0 | 0.00 | 0.00 | 0.00 | 90 | 1012.1 |
| 20260508080022 | 75 | 286 | 1.0 | 3.0 | 0.00 | 0.00 | 0.00 | 90 | 1012.1 |
| 20260508074553 | 75 | 251 | 1.0 | 3.0 | 0.00 | 0.00 | 0.00 | 90 | 1012.2 |
| 20260508073021 | 74 | 299 | 1.0 | 4.0 | 0.00 | 0.00 | 0.00 | 90 | 1012.3 |
| 20260508071624 | 74 | 306 | 3.0 | 6.0 | 0.00 | 0.00 | 0.00 | 90 | 1012.5 |
| 20260508070040 | 75 | 285 | 1.0 | 4.0 | 0.00 | 0.00 | 0.00 | 90 | 1012.5 |
| 20260508064604 | 74 | 291 | 0.0 | 2.0 | 0.00 | 0.00 | 0.00 | 89 | 1012.7 |
| 20260508063036 | 74 | 292 | 0.0 | 2.0 | 0.00 | 0.00 | 0.00 | 89 | 1012.9 |
| 20260508061509 | 75 | 294 | 1.0 | 3.0 | 0.00 | 0.00 | 0.00 | 88 | 1013.0 |
| 20260508060044 | 75 | 239 | 0.0 | 3.0 | 0.00 | 0.00 | 0.00 | 88 | 1013.0 |
| 20260508054510 | 75 | 264 | 1.0 | 2.0 | 0.00 | 0.00 | 0.00 | 88 | 1013.2 |
| 20260508053052 | 75 | 265 | 0.0 | 2.0 | 0.00 | 0.00 | 0.00 | 87 | 1013.2 |
| 20260508051603 | 75 | 265 | 0.0 | 2.0 | 0.00 | 0.00 | 0.00 | 86 | 1013.1 |
| 20260508050029 | 75 | 259 | 1.0 | 3.0 | 0.00 | 0.00 | 0.00 | 86 | 1013.2 |
| 20260508044605 | 76 | 263 | 1.0 | 6.0 | 0.00 | 0.00 | 0.00 | 85 | 1013.0 |
| 20260508043041 | 76 | 242 | 0.0 | 4.0 | 0.00 | 0.00 | 0.00 | 84 | 1013.0 |
| 20260508041504 | 77 | 290 | 1.0 | 7.0 | 0.00 | 0.00 | 0.00 | 83 | 1013.1 |
| 20260508040043 | 77 | 292 | 3.0 | 8.0 | 0.00 | 0.00 | 0.00 | 83 | 1013.1 |
| 20260508034504 | 77 | 275 | 1.0 | 7.0 | 0.00 | 0.00 | 0.00 | 83 | 1013.1 |
| 20260508033033 | 77 | 298 | 2.0 | 6.0 | 0.00 | 0.00 | 0.00 | 82 | 1013.1 |
| 20260508031605 | 76 | 270 | 3.0 | 7.0 | 0.00 | 0.00 | 0.00 | 82 | 1013.0 |
| 20260508030032 | 76 | 276 | 1.0 | 6.0 | 0.00 | 0.00 | 0.00 | 82 | 1013.0 |
| 20260508024620 | 76 | 273 | 2.0 | 4.0 | 0.00 | 0.00 | 0.00 | 81 | 1012.8 |
| 20260508023024 | 77 | 253 | 1.0 | 6.0 | 0.00 | 0.00 | 0.00 | 80 | 1012.7 |
| 20260508021550 | 77 | 248 | 1.0 | 4.0 | 0.00 | 0.00 | 0.00 | 79 | 1012.6 |
| 20260508020013 | 78 | 260 | 1.0 | 6.0 | 0.00 | 0.00 | 0.00 | 77 | 1012.7 |
| 20260508014554 | 78 | 267 | 3.0 | 8.0 | 0.00 | 0.00 | 0.00 | 76 | 1012.6 |
| 20260508013012 | 79 | 257 | 2.0 | 5.0 | 0.00 | 0.00 | 0.00 | 74 | 1012.4 |
| 20260508011558 | 79 | 289 | 2.0 | 9.0 | 0.00 | 0.00 | 0.00 | 73 | 1012.3 |
| 20260508010021 | 80 | 271 | 1.0 | 5.0 | 0.00 | 0.00 | 0.00 | 72 | 1012.3 |
| 20260508004551 | 80 | 285 | 3.0 | 8.0 | 0.00 | 0.00 | 0.00 | 70 | 1012.1 |
| 20260508003013 | 81 | 254 | 3.0 | 10.0 | 0.00 | 0.00 | 0.00 | 68 | 1011.7 |